createdAt,value
2019-02-19T06:19:35.396Z,86.02
2019-02-19T06:20:45.356Z,86.49
2019-02-19T06:21:55.305Z,86.49
2019-02-19T06:23:04.993Z,86.3
2019-02-19T06:24:14.990Z,86.68
2019-02-19T06:25:24.701Z,86.49
2019-02-19T06:26:34.428Z,86.49
2019-02-19T06:27:43.863Z,86.59
2019-02-19T06:28:53.847Z,86.45
2019-02-19T06:30:05.456Z,86.3
2019-02-19T06:31:14.897Z,86.49
2019-02-19T06:32:24.576Z,86.45
2019-02-19T06:33:34.519Z,86.59
2019-02-19T06:34:44.222Z,86.21
2019-02-19T06:35:54.156Z,86.87
2019-02-19T06:37:03.868Z,86.59
2019-02-19T06:38:13.808Z,86.87
2019-02-19T06:39:23.754Z,86.78
2019-02-19T06:40:33.713Z,86.59
2019-02-19T06:41:43.655Z,86.78
2019-02-19T06:42:53.352Z,86.83
2019-02-19T06:44:03.296Z,86.78
2019-02-19T06:45:12.738Z,86.3
2019-02-19T06:46:22.440Z,86.21
2019-02-19T06:47:32.380Z,86.68
2019-02-19T06:48:42.310Z,86.78
2019-02-19T06:49:52.272Z,86.3
2019-02-19T06:51:02.286Z,86.3
2019-02-19T06:52:12.220Z,86.49
2019-02-19T06:53:22.178Z,86.3
2019-02-19T06:54:32.126Z,86.4
2019-02-19T06:55:42.070Z,86.49
2019-02-19T06:56:51.898Z,86.49
2019-02-19T06:58:01.844Z,86.49
2019-02-19T06:59:11.914Z,86.49
2019-02-19T07:00:21.598Z,86.49
2019-02-19T07:01:31.308Z,86.11
2019-02-19T07:02:40.990Z,86.21
2019-02-19T07:03:50.695Z,86.21
2019-02-19T07:05:00.401Z,86.11
2019-02-19T07:06:10.097Z,86.3
2019-02-19T07:07:20.062Z,86.3
2019-02-19T07:08:29.787Z,86.02
2019-02-19T07:09:39.732Z,86.02
2019-02-19T07:10:49.453Z,86.11
2019-02-19T07:12:01.300Z,85.64
2019-02-19T07:13:11.252Z,86.02
2019-02-19T07:14:21.221Z,85.64
2019-02-19T07:15:30.908Z,86.11
2019-02-19T07:16:40.854Z,85.64
2019-02-19T07:17:50.614Z,85.74
2019-02-19T07:19:00.354Z,86.02
2019-02-19T07:20:09.874Z,86.11
2019-02-19T07:21:19.615Z,85.83
2019-02-19T07:22:29.575Z,85.36
2019-02-19T07:23:39.024Z,85.45
2019-02-19T07:24:49.002Z,85.55
2019-02-19T07:25:58.993Z,85.17
2019-02-19T07:27:08.472Z,85.26
2019-02-19T07:28:17.958Z,85.36
2019-02-19T07:29:27.709Z,85.26
2019-02-19T07:30:37.408Z,84.5
2019-02-19T07:31:47.348Z,84.78
2019-02-19T07:32:57.053Z,85.26
2019-02-19T07:34:06.552Z,84.59
2019-02-19T07:35:16.258Z,84.36
2019-02-19T07:36:26.262Z,84.55
2019-02-19T07:37:35.707Z,84.74
2019-02-19T07:38:45.443Z,84.83
2019-02-19T07:39:55.412Z,84.45
2019-02-19T07:41:05.479Z,84.64
2019-02-19T07:42:14.709Z,84.83
2019-02-19T07:43:24.403Z,84.07
2019-02-19T07:44:34.390Z,83.88
2019-02-19T07:45:44.115Z,84.07
2019-02-19T07:46:55.236Z,83.69
2019-02-19T07:48:04.931Z,84.26
2019-02-19T07:49:14.888Z,84.26
2019-02-19T07:50:26.052Z,84.17
2019-02-19T07:51:35.758Z,83.88
2019-02-19T07:52:45.618Z,83.88
2019-02-19T07:53:55.566Z,83.78
2019-02-19T07:55:05.275Z,83.69
2019-02-19T07:56:15.248Z,83.78
2019-02-19T07:57:24.954Z,83.59
2019-02-19T07:58:34.909Z,83.59
2019-02-19T07:59:44.851Z,83.64
2019-02-19T08:00:54.814Z,83.64
2019-02-19T08:02:04.574Z,83.31
2019-02-19T08:03:14.286Z,83.45
2019-02-19T08:04:24.255Z,83.45
2019-02-19T08:05:33.961Z,83.45
2019-02-19T08:06:43.938Z,83.45
2019-02-19T08:07:53.875Z,83.16
2019-02-19T08:09:03.596Z,83.45
2019-02-19T08:10:13.548Z,83.16
2019-02-19T08:11:23.246Z,83.64
2019-02-19T08:12:32.954Z,83.54
2019-02-19T08:13:42.657Z,83.45
2019-02-19T08:14:52.607Z,83.54
2019-02-19T08:16:02.548Z,83.16
2019-02-19T08:17:12.499Z,83.16
2019-02-19T08:18:22.668Z,82.69
2019-02-19T08:19:32.951Z,83.45
2019-02-19T08:20:42.650Z,83.64
2019-02-19T08:21:52.342Z,82.69
2019-02-19T08:23:02.524Z,82.78
2019-02-19T08:24:12.504Z,82.92
2019-02-19T08:25:22.183Z,82.82
2019-02-19T08:26:31.912Z,82.73
2019-02-19T08:27:41.913Z,82.92
2019-02-19T08:28:51.660Z,83.01
2019-02-19T08:30:19.005Z,82.07
2019-02-19T08:31:28.785Z,82.16
2019-02-19T08:32:38.261Z,82.16
2019-02-19T08:33:48.206Z,82.07
2019-02-19T08:34:58.157Z,81.68
2019-02-19T08:36:07.871Z,81.49
2019-02-19T08:37:17.816Z,81.49
2019-02-19T08:38:27.549Z,81.78
2019-02-19T08:39:37.500Z,80.83
2019-02-19T08:40:47.214Z,80.74
2019-02-19T08:41:57.172Z,80.96
2019-02-19T08:43:07.118Z,80.74
2019-02-19T08:44:16.845Z,80.87
2019-02-19T08:45:26.577Z,80.68
2019-02-19T08:46:36.540Z,80.58
2019-02-19T08:47:46.496Z,79.92
2019-02-19T08:48:56.223Z,80.02
2019-02-19T08:50:05.942Z,80.02
2019-02-19T08:51:15.914Z,79.92
2019-02-19T08:52:25.876Z,79.83
2019-02-19T08:53:35.869Z,79.86
2019-02-19T08:54:45.578Z,79.44
2019-02-19T08:55:55.546Z,79.63
2019-02-19T08:57:05.506Z,79.92
2019-02-19T08:58:15.497Z,79.73
2019-02-19T08:59:25.706Z,80.02
2019-02-19T09:00:34.664Z,79.92
2019-02-19T09:01:46.227Z,79.83
2019-02-19T09:02:56.270Z,79.83
2019-02-19T09:04:05.776Z,79.83
2019-02-19T09:05:15.738Z,79.96
2019-02-19T09:06:27.535Z,79.54
2019-02-19T09:07:37.647Z,79.86
2019-02-19T09:08:47.370Z,79.68
2019-02-19T09:09:56.878Z,79.77
2019-02-19T09:11:06.635Z,79.68
2019-02-19T09:12:16.626Z,79.77
2019-02-19T09:13:26.606Z,79.49
2019-02-19T09:14:36.614Z,79.49
2019-02-19T09:15:46.569Z,79.58
2019-02-19T09:16:56.602Z,79.58
2019-02-19T09:18:06.643Z,79.01
2019-02-19T09:19:16.638Z,79.77
2019-02-19T09:20:26.384Z,78.91
2019-02-19T09:21:36.326Z,79.01
2019-02-19T09:22:46.323Z,79.01
2019-02-19T09:23:58.333Z,79.11
2019-02-19T09:25:16.770Z,79.11
2019-02-19T09:26:26.736Z,79.01
2019-02-19T09:27:36.707Z,78.67
2019-02-19T09:28:46.139Z,77.72
2019-02-19T09:29:56.153Z,77.91
2019-02-19T09:31:06.125Z,77.81
2019-02-19T09:32:15.828Z,78
2019-02-19T09:33:26.022Z,77.43
2019-02-19T09:34:35.993Z,78.1
2019-02-19T09:35:45.697Z,77.72
2019-02-19T09:36:55.657Z,77.72
2019-02-19T09:38:05.614Z,77.81
2019-02-19T09:39:15.067Z,77.81
2019-02-19T09:40:24.534Z,77.62
2019-02-19T09:41:36.445Z,77.81
2019-02-19T09:42:46.162Z,77.62
2019-02-19T09:43:55.604Z,77.53
2019-02-19T09:45:05.565Z,77.28
2019-02-19T09:46:15.305Z,77.34
2019-02-19T09:47:25.128Z,77.34
2019-02-19T09:48:35.176Z,77.81
2019-02-19T09:49:45.210Z,77.62
2019-02-19T09:50:55.199Z,77.72
2019-02-19T09:52:04.991Z,77.81
2019-02-19T09:53:14.964Z,78
2019-02-19T09:54:24.653Z,78.38
2019-02-19T09:55:33.859Z,78.57
2019-02-19T09:56:43.850Z,78.48
2019-02-19T09:57:53.795Z,78
2019-02-19T09:59:03.788Z,78
2019-02-19T10:00:13.769Z,78.14
2019-02-19T10:01:23.730Z,78.14
2019-02-19T10:02:35.394Z,78.29
2019-02-19T10:03:46.846Z,78.52
2019-02-19T10:04:56.839Z,78.71
2019-02-19T10:06:06.585Z,78.8
2019-02-19T10:07:16.577Z,78.9
2019-02-19T10:08:26.826Z,79.28
2019-02-19T10:09:36.786Z,79.57
2019-02-19T10:10:46.778Z,79.47
2019-02-19T10:11:56.773Z,79.28
2019-02-19T10:13:06.755Z,79.75
2019-02-19T10:14:16.461Z,79.94
2019-02-19T10:15:26.222Z,79.75
2019-02-19T10:16:43.987Z,79.75
2019-02-19T10:17:53.507Z,79.85
2019-02-19T10:19:03.461Z,79.75
2019-02-19T10:20:13.561Z,79.94
2019-02-19T10:21:23.287Z,80.04
2019-02-19T10:22:32.993Z,79.85
2019-02-19T10:23:42.947Z,80.04
2019-02-19T10:24:54.849Z,80.04
2019-02-19T10:26:04.819Z,79.94
2019-02-19T10:27:14.788Z,79.85
2019-02-19T10:28:24.259Z,80.13
2019-02-19T10:29:33.967Z,80.33
2019-02-19T10:30:43.957Z,80.33
2019-02-19T10:31:53.919Z,80.52
2019-02-19T10:33:03.899Z,80.23
2019-02-19T10:34:13.612Z,80.33
2019-02-19T10:35:23.577Z,80.52
2019-02-19T10:36:33.329Z,80.99
2019-02-19T10:37:43.656Z,80.9
2019-02-19T10:38:54.755Z,80.71
2019-02-19T10:40:04.686Z,80.61
2019-02-19T10:41:14.662Z,81.18
2019-02-19T10:42:24.710Z,80.9
2019-02-19T10:43:34.715Z,81.18
2019-02-19T10:44:44.664Z,81.66
2019-02-19T10:45:54.623Z,81.66
2019-02-19T10:47:04.067Z,81.56
2019-02-19T10:48:21.116Z,81.95
2019-02-19T10:49:30.869Z,81.56
2019-02-19T10:50:40.844Z,81.56
2019-02-19T10:51:50.858Z,82.23
2019-02-19T10:53:00.829Z,81.95
2019-02-19T10:54:10.788Z,81.95
2019-02-19T10:55:20.514Z,81.95
2019-02-19T10:56:30.556Z,81.85
2019-02-19T10:57:40.268Z,81.85
2019-02-19T10:58:50.242Z,81.95
2019-02-19T11:00:00.340Z,81.85
2019-02-19T11:01:09.886Z,81.95
2019-02-19T11:02:19.855Z,81.66
2019-02-19T11:03:29.074Z,81.18
2019-02-19T11:04:40.012Z,81.37
2019-02-19T11:05:49.784Z,81.18
2019-02-19T11:06:59.755Z,81.09
2019-02-19T11:08:09.725Z,80.8
2019-02-19T11:09:19.467Z,80.71
2019-02-19T11:10:29.435Z,80.33
2019-02-19T11:11:39.167Z,80.33
2019-02-19T11:12:49.136Z,80.23
2019-02-19T11:13:59.093Z,80.8
2019-02-19T11:15:08.796Z,80.42
2019-02-19T11:16:20.299Z,80.23
2019-02-19T11:17:30.303Z,80.52
2019-02-19T11:18:40.264Z,80.42
2019-02-19T11:19:50.218Z,80.23
2019-02-19T11:20:59.929Z,80.04
2019-02-19T11:22:09.658Z,80.04
2019-02-19T11:23:21.272Z,80.27
2019-02-19T11:24:30.987Z,80.33
2019-02-19T11:25:41.037Z,80.04
2019-02-19T11:26:51.027Z,79.85
2019-02-19T11:28:00.970Z,80.33
2019-02-19T11:29:10.432Z,80.71
2019-02-19T11:30:20.641Z,80.42
2019-02-19T11:31:30.701Z,80.61
2019-02-19T11:32:40.687Z,80.04
2019-02-19T11:33:50.626Z,80.42
2019-02-19T11:35:00.579Z,80.13
2019-02-19T11:36:10.803Z,80.52
2019-02-19T11:37:20.276Z,80.13
2019-02-19T11:38:29.795Z,80.33
2019-02-19T11:39:39.526Z,79.94
2019-02-19T11:40:49.692Z,79.85
2019-02-19T11:41:59.440Z,79.89
2019-02-19T11:43:09.869Z,79.8
2019-02-19T11:44:19.848Z,79.6
2019-02-19T11:45:29.834Z,79.6
2019-02-19T11:46:39.883Z,79.22
2019-02-19T11:47:49.668Z,79.13
2019-02-19T11:48:59.656Z,78.94
2019-02-19T11:50:09.412Z,78.46
2019-02-19T11:51:19.131Z,78.46
2019-02-19T11:52:29.086Z,78.85
2019-02-19T11:53:39.056Z,78.75
2019-02-19T11:54:48.511Z,78.85
2019-02-19T11:55:58.509Z,79.03
2019-02-19T11:57:08.220Z,79.13
2019-02-19T11:58:17.962Z,79.13
2019-02-19T11:59:27.687Z,79.8
2019-02-19T12:00:37.172Z,79.6
2019-02-19T12:01:47.138Z,79.8
2019-02-19T12:02:56.861Z,79.99
2019-02-19T12:04:06.852Z,80.36
2019-02-19T12:05:16.834Z,80.84
2019-02-19T12:06:26.783Z,80.52
2019-02-19T12:07:36.733Z,80.9
2019-02-19T12:08:46.701Z,81.18
2019-02-19T12:09:56.153Z,80.8
2019-02-19T12:11:05.605Z,80.8
2019-02-19T12:12:15.571Z,80.71
2019-02-19T12:13:25.535Z,80.36
2019-02-19T12:14:35.498Z,80.84
2019-02-19T12:15:45.472Z,80.36
2019-02-19T12:16:55.448Z,80.36
2019-02-19T12:18:05.411Z,81.03
2019-02-19T12:19:15.376Z,81.23
2019-02-19T12:20:25.076Z,80.9
2019-02-19T12:21:35.030Z,80.9
2019-02-19T12:22:44.741Z,80.94
2019-02-19T12:23:54.717Z,81.03
2019-02-19T12:25:04.685Z,81.13
2019-02-19T12:26:14.666Z,80.46
2019-02-19T12:27:24.672Z,80.75
2019-02-19T12:28:34.366Z,79.99
2019-02-19T12:29:44.316Z,79.99
2019-02-19T12:30:54.079Z,80.27
2019-02-19T12:32:04.043Z,79.99
2019-02-19T12:33:13.768Z,80.08
2019-02-19T12:34:23.493Z,79.7
2019-02-19T12:35:33.469Z,79.8
2019-02-19T12:36:43.203Z,79.7
2019-02-19T12:37:53.163Z,79.51
2019-02-19T12:39:03.129Z,79.6
2019-02-19T12:40:12.838Z,79.41
2019-02-19T12:41:22.858Z,79.6
2019-02-19T12:42:32.842Z,79.8
2019-02-19T12:43:42.868Z,80.18
2019-02-19T12:44:53.688Z,79.8
2019-02-19T12:46:03.697Z,79.8
2019-02-19T12:47:13.669Z,80.08
2019-02-19T12:48:23.374Z,79.03
2019-02-19T12:49:33.100Z,79.03
2019-02-19T12:50:43.136Z,79.13
2019-02-19T12:51:53.122Z,79.32
2019-02-19T12:53:02.759Z,79.89
2019-02-19T12:54:12.510Z,79.22
2019-02-19T12:55:22.232Z,79.22
2019-02-19T12:56:32.220Z,79.32
2019-02-19T12:57:42.211Z,79.41
2019-02-19T12:58:51.916Z,79.13
2019-02-19T13:00:01.912Z,79.8
2019-02-19T13:01:11.881Z,79.41
2019-02-19T13:02:23.756Z,79.32
2019-02-19T13:03:33.477Z,79.13
2019-02-19T13:04:43.447Z,78.85
2019-02-19T13:05:53.160Z,79.13
2019-02-19T13:07:02.914Z,79.32
2019-02-19T13:08:12.938Z,78.94
2019-02-19T13:09:22.918Z,79.03
2019-02-19T13:10:32.697Z,78.85
2019-02-19T13:11:42.662Z,78.78
2019-02-19T13:12:52.371Z,78.5
2019-02-19T13:14:02.070Z,78.41
2019-02-19T13:15:12.038Z,78.08
2019-02-19T13:16:21.992Z,78.27
2019-02-19T13:17:31.945Z,78.17
2019-02-19T13:18:41.910Z,78.27
2019-02-19T13:19:51.384Z,78.08
2019-02-19T13:21:01.347Z,77.89
2019-02-19T13:22:11.312Z,77.7
2019-02-19T13:23:21.009Z,78.08
2019-02-19T13:24:30.468Z,77.89
2019-02-19T13:25:40.434Z,77.8
2019-02-19T13:26:50.139Z,77.7
2019-02-19T13:27:59.854Z,78.08
2019-02-19T13:29:09.838Z,77.8
2019-02-19T13:30:19.811Z,77.7
2019-02-19T13:31:29.800Z,77.89
2019-02-19T13:32:39.759Z,77.64
2019-02-19T13:33:49.726Z,77.45
2019-02-19T13:34:59.674Z,77.22
2019-02-19T13:36:09.643Z,77.17
2019-02-19T13:37:19.344Z,76.59
2019-02-19T13:38:29.068Z,77.17
2019-02-19T13:39:39.054Z,76.88
2019-02-19T13:40:49.012Z,76.88
2019-02-19T13:41:58.968Z,76.69
2019-02-19T13:43:08.420Z,76.31
2019-02-19T13:44:18.368Z,76.21
2019-02-19T13:45:28.319Z,75.55
2019-02-19T13:46:37.801Z,74.88
2019-02-19T13:47:48.571Z,74.79
2019-02-19T13:48:58.568Z,74.98
2019-02-19T13:50:17.218Z,75.45
2019-02-19T13:51:27.200Z,74.69
2019-02-19T13:52:36.934Z,74.21
2019-02-19T13:53:47.139Z,74.5
2019-02-19T13:54:56.632Z,74.56
2019-02-19T13:56:06.609Z,74.94
2019-02-19T13:57:16.556Z,75.32
2019-02-19T13:58:25.767Z,76.08
2019-02-19T13:59:35.729Z,75.99
2019-02-19T14:00:45.699Z,76.27
2019-02-19T14:01:55.431Z,76.65
2019-02-19T14:03:05.401Z,76.37
2019-02-19T14:04:15.366Z,76.27
2019-02-19T14:05:25.111Z,76.08
2019-02-19T14:06:34.837Z,75.99
2019-02-19T14:07:44.832Z,75.51
2019-02-19T14:08:54.798Z,76.08
2019-02-19T14:10:04.777Z,76.18
2019-02-19T14:11:14.482Z,76.46
2019-02-19T14:12:24.194Z,76.37
2019-02-19T14:13:33.899Z,76.56
2019-02-19T14:14:43.350Z,75.89
2019-02-19T14:15:53.080Z,76.08
2019-02-19T14:17:02.539Z,75.99
2019-02-19T14:18:12.529Z,76.18
2019-02-19T14:19:24.013Z,75.99
2019-02-19T14:20:34.027Z,76.08
2019-02-19T14:21:43.980Z,76.08
2019-02-19T14:22:53.931Z,76.18
2019-02-19T14:24:03.650Z,75.51
2019-02-19T14:25:13.606Z,75.23
2019-02-19T14:26:23.559Z,75.04
2019-02-19T14:27:33.526Z,75.13
2019-02-19T14:28:43.498Z,74.94
2019-02-19T14:29:53.196Z,74.56
2019-02-19T14:31:03.068Z,74.18
2019-02-19T14:32:12.783Z,74.37
2019-02-19T14:33:22.515Z,73.8
2019-02-19T14:34:32.222Z,73.7
2019-02-19T14:35:41.659Z,73.7
2019-02-19T14:36:50.854Z,73.22
2019-02-19T14:38:00.816Z,72.78
2019-02-19T14:39:10.770Z,72.41
2019-02-19T14:40:20.485Z,72.31
2019-02-19T14:41:30.445Z,72.46
2019-02-19T14:42:41.527Z,71.93
2019-02-19T14:43:51.576Z,72.02
2019-02-19T14:45:01.540Z,72.27
2019-02-19T14:46:11.501Z,72.17
2019-02-19T14:47:21.453Z,72.17
2019-02-19T14:48:31.436Z,72.17
2019-02-19T14:49:49.557Z,72.5
2019-02-19T14:50:59.291Z,72.21
2019-02-19T14:52:09.232Z,71.73
2019-02-19T14:53:18.952Z,71.64
2019-02-19T14:54:28.699Z,71.83
2019-02-19T14:55:38.417Z,71.73
2019-02-19T14:56:48.383Z,71.73
2019-02-19T14:57:58.088Z,71.83
2019-02-19T14:59:07.860Z,72.5
2019-02-19T15:00:17.815Z,72.12
2019-02-19T15:01:27.789Z,71.73
2019-02-19T15:02:37.863Z,71.83
2019-02-19T15:03:47.840Z,72.21
2019-02-19T15:04:57.581Z,71.93
2019-02-19T15:06:07.613Z,72.31
2019-02-19T15:07:17.596Z,72.21
2019-02-19T15:08:27.307Z,72.5
2019-02-19T15:09:37.036Z,72.6
2019-02-19T15:10:46.823Z,72.69
2019-02-19T15:11:56.531Z,72.6
2019-02-19T15:13:06.478Z,72.69
2019-02-19T15:14:16.514Z,72.78
2019-02-19T15:15:26.520Z,73.36
2019-02-19T15:16:36.495Z,73.07
2019-02-19T15:17:45.969Z,73.26
2019-02-19T15:18:55.678Z,73.32
2019-02-19T15:20:05.661Z,73.8
2019-02-19T15:21:15.618Z,73.7
2019-02-19T15:22:25.586Z,73.89
2019-02-19T15:23:35.540Z,73.61
2019-02-19T15:24:45.479Z,73.99
2019-02-19T15:25:55.208Z,74.18
2019-02-19T15:27:04.915Z,74.18
2019-02-19T15:28:14.866Z,74.27
2019-02-19T15:29:24.830Z,73.99
2019-02-19T15:30:34.572Z,73.99
2019-02-19T15:31:44.578Z,74.27
2019-02-19T15:32:54.543Z,74.37
2019-02-19T15:34:04.488Z,74.27
2019-02-19T15:35:14.175Z,74.18
2019-02-19T15:36:23.926Z,74.37
2019-02-19T15:37:33.871Z,74.27
2019-02-19T15:38:43.878Z,73.89
2019-02-19T15:39:53.830Z,74.37
2019-02-19T15:41:03.784Z,73.22
2019-02-19T15:42:12.999Z,73.22
2019-02-19T15:43:22.965Z,73.22
2019-02-19T15:44:32.920Z,73.03
2019-02-19T15:45:42.397Z,73.41
2019-02-19T15:46:52.108Z,73.22
2019-02-19T15:48:01.836Z,73.22
2019-02-19T15:49:11.800Z,73.13
2019-02-19T15:50:22.014Z,72.37
2019-02-19T15:51:31.717Z,73.03
2019-02-19T15:52:41.664Z,72.94
2019-02-19T15:53:51.369Z,72.65
2019-02-19T15:55:01.308Z,72.65
2019-02-19T15:56:19.716Z,72.27
2019-02-19T15:57:29.669Z,72.27
2019-02-19T15:58:39.378Z,71.51
2019-02-19T15:59:48.814Z,71.13
2019-02-19T16:00:59.836Z,71.22
2019-02-19T16:02:09.795Z,71.51
2019-02-19T16:03:19.754Z,71.51
2019-02-19T16:04:29.740Z,71.22
2019-02-19T16:05:39.768Z,71.42
2019-02-19T16:06:49.719Z,70.84
2019-02-19T16:07:59.155Z,70.94
2019-02-19T16:09:09.109Z,70.75
2019-02-19T16:10:19.069Z,71.13
2019-02-19T16:11:28.276Z,70.75
2019-02-19T16:12:38.249Z,71.03
2019-02-19T16:13:47.963Z,70.37
2019-02-19T16:14:58.466Z,70.37
2019-02-19T16:16:07.925Z,70.27
2019-02-19T16:17:17.919Z,70.18
2019-02-19T16:18:27.882Z,70.56
2019-02-19T16:19:37.614Z,70.75
2019-02-19T16:20:47.330Z,70.08
2019-02-19T16:21:57.301Z,70.24
2019-02-19T16:23:07.282Z,70.33
2019-02-19T16:24:17.480Z,70.52
2019-02-19T16:25:27.459Z,70.05
2019-02-19T16:26:36.915Z,70.05
2019-02-19T16:27:46.893Z,70.05
2019-02-19T16:28:56.850Z,70.33
2019-02-19T16:30:06.621Z,70.24
2019-02-19T16:31:16.585Z,70.14
2019-02-19T16:32:26.302Z,70.24
2019-02-19T16:33:36.241Z,70.14
2019-02-19T16:34:45.998Z,70.33
2019-02-19T16:35:55.981Z,69.76
2019-02-19T16:37:05.966Z,69.85
2019-02-19T16:38:15.730Z,69.76
2019-02-19T16:39:25.681Z,70.24
2019-02-19T16:40:35.661Z,70.24
2019-02-19T16:41:45.126Z,70.24
2019-02-19T16:42:54.584Z,70.33
2019-02-19T16:44:04.531Z,70.24
2019-02-19T16:45:14.715Z,70.14
2019-02-19T16:46:24.434Z,70.14
2019-02-19T16:47:34.379Z,70.33
2019-02-19T16:48:44.346Z,70.14
2019-02-19T16:49:54.060Z,70.14
2019-02-19T16:51:13.040Z,70.33
2019-02-19T16:52:23.868Z,70.05
2019-02-19T16:53:33.825Z,70.43
2019-02-19T16:54:43.821Z,70.24
2019-02-19T16:55:53.312Z,70.05
2019-02-19T16:57:03.256Z,70.33
2019-02-19T16:58:13.241Z,69.95
2019-02-19T16:59:23.254Z,70.14
2019-02-19T17:00:34.634Z,70.33
2019-02-19T17:01:44.605Z,70.24
2019-02-19T17:02:54.093Z,70.33
2019-02-19T17:04:05.884Z,70.05
2019-02-19T17:05:15.358Z,70.43
2019-02-19T17:06:24.832Z,70.33
2019-02-19T17:07:34.317Z,70.14
2019-02-19T17:08:44.040Z,70.52
2019-02-19T17:09:54.007Z,71.19
2019-02-19T17:11:03.953Z,70.62
2019-02-19T17:12:13.900Z,70.52
2019-02-19T17:13:23.625Z,70.9
2019-02-19T17:14:35.981Z,70.72
2019-02-19T17:15:45.995Z,70.62
2019-02-19T17:16:55.957Z,71.28
2019-02-19T17:18:05.913Z,71.47
2019-02-19T17:19:15.384Z,70.9
2019-02-19T17:20:31.834Z,70.9
2019-02-19T17:21:41.795Z,71.28
2019-02-19T17:22:51.819Z,71.38
2019-02-19T17:24:01.770Z,71.19
2019-02-19T17:25:11.752Z,71.19
2019-02-19T17:26:21.695Z,71.09
2019-02-19T17:27:31.663Z,71.09
2019-02-19T17:28:41.434Z,71.47
2019-02-19T17:29:52.492Z,70.9
2019-02-19T17:31:02.456Z,71
2019-02-19T17:32:12.220Z,71.47
2019-02-19T17:33:21.462Z,70.81
2019-02-19T17:34:31.177Z,71.38
2019-02-19T17:35:41.135Z,71.38
2019-02-19T17:36:51.075Z,71.19
2019-02-19T17:38:01.034Z,71.19
2019-02-19T17:39:19.884Z,71.19
2019-02-19T17:40:29.917Z,71
2019-02-19T17:41:39.604Z,71.28
2019-02-19T17:42:51.560Z,70.72
2019-02-19T17:44:01.636Z,71.09
2019-02-19T17:45:11.601Z,70.81
2019-02-19T17:46:21.737Z,70.62
2019-02-19T17:47:31.695Z,71.28
2019-02-19T17:48:41.662Z,71.19
2019-02-19T17:49:51.616Z,71
2019-02-19T17:51:01.599Z,70.9
2019-02-19T17:52:11.399Z,70.72
2019-02-19T17:53:21.179Z,70.62
2019-02-19T17:54:30.915Z,71.19
2019-02-19T17:55:40.880Z,70.81
2019-02-19T17:56:50.881Z,70.9
2019-02-19T17:58:00.870Z,70.87
2019-02-19T17:59:10.826Z,70.77
2019-02-19T18:00:20.835Z,70.72
2019-02-19T18:01:30.792Z,70.62
2019-02-19T18:02:40.246Z,70.81
2019-02-19T18:03:49.939Z,70.81
2019-02-19T18:04:59.650Z,70.72
2019-02-19T18:06:09.608Z,70.81
2019-02-19T18:07:19.581Z,70.81
2019-02-19T18:08:29.296Z,70.9
2019-02-19T18:09:38.984Z,71.19
2019-02-19T18:10:48.701Z,70.72
2019-02-19T18:11:58.666Z,70.72
2019-02-19T18:13:08.652Z,70.68
2019-02-19T18:14:18.626Z,70.62
2019-02-19T18:15:28.599Z,70.81
2019-02-19T18:16:38.566Z,71.09
2019-02-19T18:17:48.286Z,71.38
2019-02-19T18:18:58.245Z,71.72
2019-02-19T18:20:07.959Z,71.86
2019-02-19T18:21:17.688Z,71.91
2019-02-19T18:22:27.403Z,71.72
2019-02-19T18:23:37.106Z,71.67
2019-02-19T18:24:46.808Z,71.44
2019-02-19T18:25:56.775Z,71.63
2019-02-19T18:27:06.506Z,71.67
2019-02-19T18:28:16.455Z,71.63
2019-02-19T18:29:26.407Z,71.82
2019-02-19T18:30:36.136Z,71.53
2019-02-19T18:31:45.867Z,71.86
2019-02-19T18:32:55.593Z,71.72
2019-02-19T18:34:05.346Z,71.34
2019-02-19T18:35:15.294Z,71.25
2019-02-19T18:36:25.264Z,71.25
2019-02-19T18:37:35.233Z,71.57
2019-02-19T18:38:44.931Z,71.28
2019-02-19T18:39:54.644Z,71.34
2019-02-19T18:41:04.346Z,71.76
2019-02-19T18:42:14.122Z,71.76
2019-02-19T18:43:24.092Z,71.63
2019-02-19T18:44:34.045Z,71.72
2019-02-19T18:45:43.781Z,71.63
2019-02-19T18:46:53.585Z,71.76
2019-02-19T18:48:03.293Z,71.63
2019-02-19T18:49:13.010Z,71.63
2019-02-19T18:50:23.030Z,71.72
2019-02-19T18:51:32.988Z,71.63
2019-02-19T18:52:42.976Z,71.63
2019-02-19T18:53:52.689Z,71.82
2019-02-19T18:55:02.145Z,71.72
2019-02-19T18:56:11.888Z,71.72
2019-02-19T18:57:21.844Z,71.63
2019-02-19T18:58:31.551Z,72.11
2019-02-19T18:59:41.508Z,71.82
2019-02-19T19:00:51.482Z,71.91
2019-02-19T19:02:01.214Z,72.2
2019-02-19T19:03:10.923Z,72.2
2019-02-19T19:04:20.636Z,72.11
2019-02-19T19:05:30.624Z,72.2
2019-02-19T19:06:40.371Z,72.11
2019-02-19T19:07:49.843Z,72.3
2019-02-19T19:08:59.832Z,72.05
2019-02-19T19:10:09.541Z,72.01
2019-02-19T19:11:19.554Z,72.2
2019-02-19T19:12:29.525Z,72.01
2019-02-19T19:13:39.511Z,72.39
2019-02-19T19:14:49.493Z,72.3
2019-02-19T19:15:59.441Z,72.77
2019-02-19T19:17:09.428Z,72.67
2019-02-19T19:18:21.765Z,72.49
2019-02-19T19:19:31.236Z,72.58
2019-02-19T19:20:41.215Z,72.49
2019-02-19T19:21:51.185Z,72.67
2019-02-19T19:23:00.916Z,72.77
2019-02-19T19:24:10.654Z,72.58
2019-02-19T19:25:20.370Z,72.67
2019-02-19T19:26:30.090Z,72.77
2019-02-19T19:27:40.076Z,72.77
2019-02-19T19:28:49.531Z,72.77
2019-02-19T19:29:59.263Z,72.67
2019-02-19T19:31:09.273Z,72.58
2019-02-19T19:32:19.259Z,72.49
2019-02-19T19:33:28.973Z,72.52
2019-02-19T19:34:38.970Z,72.67
2019-02-19T19:35:48.485Z,72.62
2019-02-19T19:36:58.712Z,72.77
2019-02-19T19:38:08.688Z,72.67
2019-02-19T19:39:19.906Z,72.67
2019-02-19T19:40:30.030Z,72.96
2019-02-19T19:41:39.763Z,73.1
2019-02-19T19:42:49.491Z,76.48
2019-02-19T19:43:59.213Z,79.91
2019-02-19T19:45:08.924Z,81.81
2019-02-19T19:46:18.653Z,84.56
2019-02-19T19:47:28.626Z,86.52
2019-02-19T19:48:38.604Z,88.52
2019-02-19T19:49:48.404Z,89.47
2019-02-19T19:50:58.378Z,91.18
2019-02-19T19:52:08.117Z,92.08
2019-02-19T19:53:18.103Z,93.41
2019-02-19T19:54:28.139Z,95.51
2019-02-19T19:55:37.843Z,96.93
2019-02-19T19:56:47.849Z,98.55
2019-02-19T19:57:57.602Z,99.99
2019-02-19T19:59:07.384Z,99.99
2019-02-19T20:00:17.408Z,99.99
2019-02-19T20:01:27.411Z,99.99
2019-02-19T20:02:37.421Z,99.99
2019-02-19T20:03:47.420Z,99.99
2019-02-19T20:04:57.410Z,99.99
2019-02-19T20:06:07.155Z,99.99
2019-02-19T20:07:17.149Z,99.99
2019-02-19T20:08:27.143Z,99.99
2019-02-19T20:09:37.136Z,99.99
2019-02-19T20:10:46.879Z,99.99
2019-02-19T20:11:56.895Z,99.99
2019-02-19T20:13:06.926Z,99.99
2019-02-19T20:14:17.123Z,99.99
2019-02-19T20:15:27.147Z,99.99
2019-02-19T20:16:38.972Z,99.99
2019-02-19T20:17:48.970Z,99.99
2019-02-19T20:18:58.963Z,99.99
2019-02-19T20:20:08.963Z,99.99
2019-02-19T20:21:26.368Z,99.99
2019-02-19T20:22:36.655Z,99.99
2019-02-19T20:23:46.675Z,99.99
2019-02-19T20:24:57.838Z,99.99
2019-02-19T20:26:08.035Z,99.99
2019-02-19T20:27:18.071Z,99.99
2019-02-19T20:28:27.826Z,99.99
2019-02-19T20:29:37.559Z,99.99
2019-02-19T20:30:47.304Z,99.99
2019-02-19T20:31:57.313Z,99.99
2019-02-19T20:33:07.328Z,99.99
2019-02-19T20:34:17.359Z,99.99
2019-02-19T20:35:27.137Z,99.99
2019-02-19T20:36:37.127Z,99.99
2019-02-19T20:37:56.040Z,99.99
2019-02-19T20:39:06.065Z,99.99
2019-02-19T20:40:16.054Z,99.99
2019-02-19T20:41:25.808Z,99.99
2019-02-19T20:42:35.789Z,99.99
2019-02-19T20:43:45.793Z,99.99
2019-02-19T20:44:55.292Z,99.99
2019-02-19T20:46:05.440Z,99.99
2019-02-19T20:47:15.436Z,99.99
2019-02-19T20:48:24.916Z,99.99
2019-02-19T20:49:34.634Z,99.99
2019-02-19T20:50:44.129Z,99.99
2019-02-19T20:51:54.109Z,99.99
2019-02-19T20:53:03.544Z,99.99
2019-02-19T20:54:13.535Z,99.99
2019-02-19T20:55:23.230Z,99.99
2019-02-19T20:56:42.688Z,99.99
2019-02-19T20:57:52.655Z,99.99
2019-02-19T20:59:02.688Z,99.99
2019-02-19T21:00:12.683Z,99.99
2019-02-19T21:01:22.528Z,99.99
2019-02-19T21:02:32.499Z,99.99
2019-02-19T21:03:44.079Z,99.99
2019-02-19T21:04:54.199Z,99.99
2019-02-19T21:06:04.175Z,99.99
2019-02-19T21:07:15.625Z,99.99
2019-02-19T21:08:25.350Z,99.99
2019-02-19T21:09:45.890Z,99.99
2019-02-19T21:10:55.851Z,99.99
2019-02-19T21:12:05.830Z,99.99
2019-02-19T21:13:15.815Z,99.99
2019-02-19T21:14:25.781Z,99.99
2019-02-19T21:15:35.744Z,99.99
2019-02-19T21:16:45.461Z,99.99
2019-02-19T21:17:55.169Z,99.99
2019-02-19T21:19:05.134Z,99.99
2019-02-19T21:20:15.099Z,99.99
2019-02-19T21:21:25.082Z,99.99
2019-02-19T21:22:35.040Z,99.99
2019-02-19T21:23:45.012Z,99.99
2019-02-19T21:24:54.714Z,99.99